sensor_id;sensor_type;location;lat;lon;timestamp;temperature;humidity
37646;DHT22;23489;49.600;6.138;2024-03-08T00:00:15;3.50;99.90
37646;DHT22;23489;49.600;6.138;2024-03-08T00:02:44;3.40;99.90
37646;DHT22;23489;49.600;6.138;2024-03-08T00:05:10;3.40;99.90
37646;DHT22;23489;49.600;6.138;2024-03-08T00:07:37;3.40;99.90
37646;DHT22;23489;49.600;6.138;2024-03-08T00:10:07;3.40;99.90
37646;DHT22;23489;49.600;6.138;2024-03-08T00:12:43;3.40;99.90
37646;DHT22;23489;49.600;6.138;2024-03-08T00:15:10;3.30;99.90
37646;DHT22;23489;49.600;6.138;2024-03-08T00:17:39;3.30;99.90
37646;DHT22;23489;49.600;6.138;2024-03-08T00:20:06;3.30;99.90
37646;DHT22;23489;49.600;6.138;2024-03-08T00:22:34;3.30;99.90
37646;DHT22;23489;49.600;6.138;2024-03-08T00:25:00;3.30;99.90
37646;DHT22;23489;49.600;6.138;2024-03-08T00:27:26;3.30;99.90
37646;DHT22;23489;49.600;6.138;2024-03-08T00:29:51;3.20;99.90
37646;DHT22;23489;49.600;6.138;2024-03-08T00:32:17;3.20;99.90
37646;DHT22;23489;49.600;6.138;2024-03-08T00:34:43;3.20;99.90
37646;DHT22;23489;49.600;6.138;2024-03-08T00:37:09;3.20;99.90
37646;DHT22;23489;49.600;6.138;2024-03-08T00:39:35;3.20;99.90
37646;DHT22;23489;49.600;6.138;2024-03-08T00:42:01;3.20;99.90
37646;DHT22;23489;49.600;6.138;2024-03-08T00:44:27;3.20;99.90
37646;DHT22;23489;49.600;6.138;2024-03-08T00:46:52;3.20;99.90
37646;DHT22;23489;49.600;6.138;2024-03-08T00:49:18;3.20;99.90
37646;DHT22;23489;49.600;6.138;2024-03-08T00:51:44;3.20;99.90
37646;DHT22;23489;49.600;6.138;2024-03-08T00:54:10;3.20;99.90
37646;DHT22;23489;49.600;6.138;2024-03-08T00:56:36;3.20;99.90
37646;DHT22;23489;49.600;6.138;2024-03-08T00:59:02;3.20;99.90
37646;DHT22;23489;49.600;6.138;2024-03-08T01:01:28;3.20;99.90
37646;DHT22;23489;49.600;6.138;2024-03-08T01:03:55;3.20;99.90
37646;DHT22;23489;49.600;6.138;2024-03-08T01:06:20;3.10;99.90
37646;DHT22;23489;49.600;6.138;2024-03-08T01:08:46;3.20;99.90
37646;DHT22;23489;49.600;6.138;2024-03-08T01:11:15;3.10;99.90
37646;DHT22;23489;49.600;6.138;2024-03-08T01:13:41;3.10;99.90
37646;DHT22;23489;49.600;6.138;2024-03-08T01:16:06;3.10;99.90
37646;DHT22;23489;49.600;6.138;2024-03-08T01:18:32;3.10;99.90
37646;DHT22;23489;49.600;6.138;2024-03-08T01:20:58;3.10;99.90
37646;DHT22;23489;49.600;6.138;2024-03-08T01:23:23;3.00;99.90
37646;DHT22;23489;49.600;6.138;2024-03-08T01:25:49;3.10;99.90
37646;DHT22;23489;49.600;6.138;2024-03-08T01:28:23;3.10;99.90
37646;DHT22;23489;49.600;6.138;2024-03-08T01:30:50;3.00;99.90
37646;DHT22;23489;49.600;6.138;2024-03-08T01:33:22;3.10;99.90
37646;DHT22;23489;49.600;6.138;2024-03-08T01:35:48;3.10;99.90
37646;DHT22;23489;49.600;6.138;2024-03-08T01:38:14;3.10;99.90
37646;DHT22;23489;49.600;6.138;2024-03-08T01:40:39;3.00;99.90
37646;DHT22;23489;49.600;6.138;2024-03-08T01:43:36;3.10;99.90
37646;DHT22;23489;49.600;6.138;2024-03-08T01:46:02;3.10;99.90
37646;DHT22;23489;49.600;6.138;2024-03-08T01:48:29;3.00;99.90
37646;DHT22;23489;49.600;6.138;2024-03-08T01:50:56;3.00;99.90
37646;DHT22;23489;49.600;6.138;2024-03-08T01:53:24;3.00;99.90
37646;DHT22;23489;49.600;6.138;2024-03-08T01:55:53;3.00;99.90
37646;DHT22;23489;49.600;6.138;2024-03-08T01:58:20;2.90;99.90
37646;DHT22;23489;49.600;6.138;2024-03-08T02:00:48;2.90;99.90
37646;DHT22;23489;49.600;6.138;2024-03-08T02:03:17;2.90;99.90
37646;DHT22;23489;49.600;6.138;2024-03-08T02:05:43;2.90;99.90
37646;DHT22;23489;49.600;6.138;2024-03-08T02:08:09;2.90;99.90
37646;DHT22;23489;49.600;6.138;2024-03-08T02:10:41;2.90;99.90
37646;DHT22;23489;49.600;6.138;2024-03-08T02:13:10;2.80;99.90
37646;DHT22;23489;49.600;6.138;2024-03-08T02:15:58;2.80;99.90
37646;DHT22;23489;49.600;6.138;2024-03-08T02:18:29;2.80;99.90
37646;DHT22;23489;49.600;6.138;2024-03-08T02:21:05;2.80;99.90
37646;DHT22;23489;49.600;6.138;2024-03-08T02:23:32;2.80;99.90
37646;DHT22;23489;49.600;6.138;2024-03-08T02:25:58;2.80;99.90
37646;DHT22;23489;49.600;6.138;2024-03-08T02:28:24;2.80;99.90
37646;DHT22;23489;49.600;6.138;2024-03-08T02:30:54;2.70;99.90
37646;DHT22;23489;49.600;6.138;2024-03-08T02:33:22;2.70;99.90
37646;DHT22;23489;49.600;6.138;2024-03-08T02:35:49;2.70;99.90
37646;DHT22;23489;49.600;6.138;2024-03-08T02:38:16;2.70;99.90
37646;DHT22;23489;49.600;6.138;2024-03-08T02:40:43;2.70;99.90
37646;DHT22;23489;49.600;6.138;2024-03-08T02:43:09;2.70;99.90
37646;DHT22;23489;49.600;6.138;2024-03-08T02:45:35;2.70;99.90
37646;DHT22;23489;49.600;6.138;2024-03-08T02:48:01;2.70;99.90
37646;DHT22;23489;49.600;6.138;2024-03-08T02:50:27;2.60;99.90
37646;DHT22;23489;49.600;6.138;2024-03-08T02:52:52;2.60;99.90
37646;DHT22;23489;49.600;6.138;2024-03-08T02:55:18;2.60;99.90
37646;DHT22;23489;49.600;6.138;2024-03-08T02:57:44;2.60;99.90
37646;DHT22;23489;49.600;6.138;2024-03-08T03:00:12;2.60;99.90
37646;DHT22;23489;49.600;6.138;2024-03-08T03:02:38;2.60;99.90
37646;DHT22;23489;49.600;6.138;2024-03-08T03:05:05;2.60;99.90
37646;DHT22;23489;49.600;6.138;2024-03-08T03:07:34;2.50;99.90
37646;DHT22;23489;49.600;6.138;2024-03-08T03:10:00;2.50;99.90
37646;DHT22;23489;49.600;6.138;2024-03-08T03:12:27;2.60;99.90
37646;DHT22;23489;49.600;6.138;2024-03-08T03:14:53;2.50;99.90
37646;DHT22;23489;49.600;6.138;2024-03-08T03:17:19;2.60;99.90
37646;DHT22;23489;49.600;6.138;2024-03-08T03:19:45;2.50;99.90
37646;DHT22;23489;49.600;6.138;2024-03-08T03:22:12;2.60;99.90
37646;DHT22;23489;49.600;6.138;2024-03-08T03:24:38;2.60;99.90
37646;DHT22;23489;49.600;6.138;2024-03-08T03:27:07;2.60;99.90
37646;DHT22;23489;49.600;6.138;2024-03-08T03:29:40;2.60;99.90
37646;DHT22;23489;49.600;6.138;2024-03-08T03:32:08;2.50;99.90
37646;DHT22;23489;49.600;6.138;2024-03-08T03:34:34;2.60;99.90
37646;DHT22;23489;49.600;6.138;2024-03-08T03:37:04;2.60;99.90
37646;DHT22;23489;49.600;6.138;2024-03-08T03:39:30;2.60;99.90
37646;DHT22;23489;49.600;6.138;2024-03-08T03:42:17;2.50;99.90
37646;DHT22;23489;49.600;6.138;2024-03-08T03:44:47;2.50;99.90
37646;DHT22;23489;49.600;6.138;2024-03-08T03:47:13;2.50;99.90
37646;DHT22;23489;49.600;6.138;2024-03-08T03:49:43;2.50;99.90
37646;DHT22;23489;49.600;6.138;2024-03-08T03:52:09;2.50;99.90
37646;DHT22;23489;49.600;6.138;2024-03-08T03:54:35;2.50;99.90
37646;DHT22;23489;49.600;6.138;2024-03-08T03:57:01;2.40;99.90
37646;DHT22;23489;49.600;6.138;2024-03-08T03:59:28;2.40;99.90
37646;DHT22;23489;49.600;6.138;2024-03-08T04:01:54;2.40;99.90
37646;DHT22;23489;49.600;6.138;2024-03-08T04:04:20;2.40;99.90
37646;DHT22;23489;49.600;6.138;2024-03-08T04:06:46;2.40;99.90
37646;DHT22;23489;49.600;6.138;2024-03-08T04:09:12;2.40;99.90
37646;DHT22;23489;49.600;6.138;2024-03-08T04:11:38;2.30;99.90
37646;DHT22;23489;49.600;6.138;2024-03-08T04:14:04;2.30;99.90
37646;DHT22;23489;49.600;6.138;2024-03-08T04:16:31;2.30;99.90
37646;DHT22;23489;49.600;6.138;2024-03-08T04:18:58;2.30;99.90
37646;DHT22;23489;49.600;6.138;2024-03-08T04:21:23;2.30;99.90
37646;DHT22;23489;49.600;6.138;2024-03-08T04:23:49;2.20;99.90
37646;DHT22;23489;49.600;6.138;2024-03-08T04:26:15;2.20;99.90
37646;DHT22;23489;49.600;6.138;2024-03-08T04:28:41;2.20;99.90
37646;DHT22;23489;49.600;6.138;2024-03-08T04:31:07;2.20;99.90
37646;DHT22;23489;49.600;6.138;2024-03-08T04:33:33;2.20;99.90
37646;DHT22;23489;49.600;6.138;2024-03-08T04:36:01;2.10;99.90
37646;DHT22;23489;49.600;6.138;2024-03-08T04:38:30;2.10;99.90
37646;DHT22;23489;49.600;6.138;2024-03-08T04:40:57;2.10;99.90
37646;DHT22;23489;49.600;6.138;2024-03-08T04:43:23;2.10;99.90
37646;DHT22;23489;49.600;6.138;2024-03-08T04:45:52;2.10;99.90
37646;DHT22;23489;49.600;6.138;2024-03-08T04:48:19;2.10;99.90
37646;DHT22;23489;49.600;6.138;2024-03-08T04:50:46;2.00;99.90
37646;DHT22;23489;49.600;6.138;2024-03-08T04:53:11;2.00;99.90
37646;DHT22;23489;49.600;6.138;2024-03-08T04:55:37;2.00;99.90
37646;DHT22;23489;49.600;6.138;2024-03-08T04:58:03;2.00;99.90
37646;DHT22;23489;49.600;6.138;2024-03-08T05:00:32;2.00;99.90
37646;DHT22;23489;49.600;6.138;2024-03-08T05:02:58;2.00;99.90
37646;DHT22;23489;49.600;6.138;2024-03-08T05:05:24;2.00;99.90
37646;DHT22;23489;49.600;6.138;2024-03-08T05:07:50;2.00;99.90
37646;DHT22;23489;49.600;6.138;2024-03-08T05:10:16;1.90;99.90
37646;DHT22;23489;49.600;6.138;2024-03-08T05:12:43;1.90;99.90
37646;DHT22;23489;49.600;6.138;2024-03-08T05:15:09;1.90;99.90
37646;DHT22;23489;49.600;6.138;2024-03-08T05:17:35;1.90;99.90
37646;DHT22;23489;49.600;6.138;2024-03-08T05:20:01;1.90;99.90
37646;DHT22;23489;49.600;6.138;2024-03-08T05:22:27;1.90;99.90
37646;DHT22;23489;49.600;6.138;2024-03-08T05:24:53;1.90;99.90
37646;DHT22;23489;49.600;6.138;2024-03-08T05:27:19;1.90;99.90
37646;DHT22;23489;49.600;6.138;2024-03-08T05:29:45;1.90;99.90
37646;DHT22;23489;49.600;6.138;2024-03-08T05:32:11;1.80;99.90
37646;DHT22;23489;49.600;6.138;2024-03-08T05:34:37;1.80;99.90
37646;DHT22;23489;49.600;6.138;2024-03-08T05:37:04;1.80;99.90
37646;DHT22;23489;49.600;6.138;2024-03-08T05:39:29;1.80;99.90
37646;DHT22;23489;49.600;6.138;2024-03-08T05:41:55;1.80;99.90
37646;DHT22;23489;49.600;6.138;2024-03-08T05:44:21;1.80;99.90
37646;DHT22;23489;49.600;6.138;2024-03-08T05:46:47;1.80;99.90
37646;DHT22;23489;49.600;6.138;2024-03-08T05:49:13;1.70;99.90
37646;DHT22;23489;49.600;6.138;2024-03-08T05:51:40;1.80;99.90
37646;DHT22;23489;49.600;6.138;2024-03-08T05:54:08;1.80;99.90
37646;DHT22;23489;49.600;6.138;2024-03-08T05:56:37;1.70;99.90
37646;DHT22;23489;49.600;6.138;2024-03-08T05:59:03;1.70;99.90
37646;DHT22;23489;49.600;6.138;2024-03-08T06:01:29;1.70;99.90
37646;DHT22;23489;49.600;6.138;2024-03-08T06:03:56;1.70;99.90
37646;DHT22;23489;49.600;6.138;2024-03-08T06:06:25;1.70;99.90
37646;DHT22;23489;49.600;6.138;2024-03-08T06:08:51;1.70;99.90
37646;DHT22;23489;49.600;6.138;2024-03-08T06:11:18;1.70;99.90
37646;DHT22;23489;49.600;6.138;2024-03-08T06:13:45;1.70;99.90
37646;DHT22;23489;49.600;6.138;2024-03-08T06:16:11;1.70;99.90
37646;DHT22;23489;49.600;6.138;2024-03-08T06:18:37;1.70;99.90
37646;DHT22;23489;49.600;6.138;2024-03-08T06:21:04;1.70;99.90
37646;DHT22;23489;49.600;6.138;2024-03-08T06:23:33;1.70;99.90
37646;DHT22;23489;49.600;6.138;2024-03-08T06:25:59;1.70;99.90
37646;DHT22;23489;49.600;6.138;2024-03-08T06:28:25;1.70;99.90
37646;DHT22;23489;49.600;6.138;2024-03-08T06:30:51;1.70;99.90
37646;DHT22;23489;49.600;6.138;2024-03-08T06:33:17;1.70;99.90
37646;DHT22;23489;49.600;6.138;2024-03-08T06:35:43;1.70;99.90
37646;DHT22;23489;49.600;6.138;2024-03-08T06:38:09;1.70;99.90
37646;DHT22;23489;49.600;6.138;2024-03-08T06:40:37;1.80;99.90
37646;DHT22;23489;49.600;6.138;2024-03-08T06:43:02;1.80;99.90
37646;DHT22;23489;49.600;6.138;2024-03-08T06:45:32;1.80;99.90
37646;DHT22;23489;49.600;6.138;2024-03-08T06:47:57;1.90;99.90
37646;DHT22;23489;49.600;6.138;2024-03-08T06:50:23;2.00;99.90
37646;DHT22;23489;49.600;6.138;2024-03-08T06:52:49;2.00;99.90
37646;DHT22;23489;49.600;6.138;2024-03-08T06:55:19;2.10;99.90
37646;DHT22;23489;49.600;6.138;2024-03-08T06:57:45;2.10;99.90
37646;DHT22;23489;49.600;6.138;2024-03-08T07:00:11;2.20;99.90
37646;DHT22;23489;49.600;6.138;2024-03-08T07:02:47;2.20;99.90
37646;DHT22;23489;49.600;6.138;2024-03-08T07:05:15;2.20;99.90
37646;DHT22;23489;49.600;6.138;2024-03-08T07:07:42;2.30;99.90
37646;DHT22;23489;49.600;6.138;2024-03-08T07:10:08;2.40;99.90
37646;DHT22;23489;49.600;6.138;2024-03-08T07:12:37;2.40;99.90
37646;DHT22;23489;49.600;6.138;2024-03-08T07:15:05;2.50;99.90
37646;DHT22;23489;49.600;6.138;2024-03-08T07:17:31;2.60;99.90
37646;DHT22;23489;49.600;6.138;2024-03-08T07:20:00;2.60;99.90
37646;DHT22;23489;49.600;6.138;2024-03-08T07:22:33;2.70;99.90
37646;DHT22;23489;49.600;6.138;2024-03-08T07:24:58;2.80;99.90
37646;DHT22;23489;49.600;6.138;2024-03-08T07:27:54;2.90;99.90
37646;DHT22;23489;49.600;6.138;2024-03-08T07:30:22;3.00;99.90
37646;DHT22;23489;49.600;6.138;2024-03-08T07:33:06;3.20;99.90
37646;DHT22;23489;49.600;6.138;2024-03-08T07:35:33;3.40;99.90
37646;DHT22;23489;49.600;6.138;2024-03-08T07:38:09;3.70;99.90
37646;DHT22;23489;49.600;6.138;2024-03-08T07:40:39;4.30;99.90
37646;DHT22;23489;49.600;6.138;2024-03-08T07:43:06;5.20;99.90
37646;DHT22;23489;49.600;6.138;2024-03-08T07:45:32;6.50;99.90
37646;DHT22;23489;49.600;6.138;2024-03-08T07:47:58;8.00;99.90
37646;DHT22;23489;49.600;6.138;2024-03-08T07:50:24;9.10;99.90
37646;DHT22;23489;49.600;6.138;2024-03-08T07:52:49;9.90;99.90
37646;DHT22;23489;49.600;6.138;2024-03-08T07:55:15;10.70;99.90
37646;DHT22;23489;49.600;6.138;2024-03-08T07:57:41;11.40;99.90
37646;DHT22;23489;49.600;6.138;2024-03-08T08:00:09;11.60;99.90
37646;DHT22;23489;49.600;6.138;2024-03-08T08:02:36;11.90;99.90
37646;DHT22;23489;49.600;6.138;2024-03-08T08:05:02;12.30;98.90
37646;DHT22;23489;49.600;6.138;2024-03-08T08:07:29;12.00;99.30
37646;DHT22;23489;49.600;6.138;2024-03-08T08:09:55;12.40;98.20
37646;DHT22;23489;49.600;6.138;2024-03-08T08:12:20;13.00;97.70
37646;DHT22;23489;49.600;6.138;2024-03-08T08:14:46;13.40;95.90
37646;DHT22;23489;49.600;6.138;2024-03-08T08:17:12;13.40;96.40
37646;DHT22;23489;49.600;6.138;2024-03-08T08:19:40;13.20;95.80
37646;DHT22;23489;49.600;6.138;2024-03-08T08:22:06;13.60;94.90
37646;DHT22;23489;49.600;6.138;2024-03-08T08:24:34;13.60;94.60
37646;DHT22;23489;49.600;6.138;2024-03-08T08:27:02;13.40;94.70
37646;DHT22;23489;49.600;6.138;2024-03-08T08:29:28;14.20;94.50
37646;DHT22;23489;49.600;6.138;2024-03-08T08:31:54;14.20;93.40
37646;DHT22;23489;49.600;6.138;2024-03-08T08:34:20;14.20;93.20
37646;DHT22;23489;49.600;6.138;2024-03-08T08:36:49;14.60;92.60
37646;DHT22;23489;49.600;6.138;2024-03-08T08:39:15;14.60;91.70
37646;DHT22;23489;49.600;6.138;2024-03-08T08:41:42;14.70;91.20
37646;DHT22;23489;49.600;6.138;2024-03-08T08:44:08;15.30;91.30
37646;DHT22;23489;49.600;6.138;2024-03-08T08:46:37;15.50;90.60
37646;DHT22;23489;49.600;6.138;2024-03-08T08:49:04;16.20;89.20
37646;DHT22;23489;49.600;6.138;2024-03-08T08:51:30;16.40;87.80
37646;DHT22;23489;49.600;6.138;2024-03-08T08:53:56;16.40;86.80
37646;DHT22;23489;49.600;6.138;2024-03-08T08:56:22;15.90;86.50
37646;DHT22;23489;49.600;6.138;2024-03-08T08:58:47;15.00;87.40
37646;DHT22;23489;49.600;6.138;2024-03-08T09:01:14;14.40;88.30
37646;DHT22;23489;49.600;6.138;2024-03-08T09:03:40;14.00;90.20
37646;DHT22;23489;49.600;6.138;2024-03-08T09:06:06;14.10;90.00
37646;DHT22;23489;49.600;6.138;2024-03-08T09:08:37;14.60;90.10
37646;DHT22;23489;49.600;6.138;2024-03-08T09:11:03;15.50;88.50
37646;DHT22;23489;49.600;6.138;2024-03-08T09:13:29;16.20;87.40
37646;DHT22;23489;49.600;6.138;2024-03-08T09:15:55;16.50;84.30
37646;DHT22;23489;49.600;6.138;2024-03-08T09:18:20;16.40;85.40
37646;DHT22;23489;49.600;6.138;2024-03-08T09:20:46;17.70;82.80
37646;DHT22;23489;49.600;6.138;2024-03-08T09:23:12;17.20;80.60
37646;DHT22;23489;49.600;6.138;2024-03-08T09:25:38;16.20;82.30
37646;DHT22;23489;49.600;6.138;2024-03-08T09:28:04;16.10;84.10
37646;DHT22;23489;49.600;6.138;2024-03-08T09:30:31;16.10;83.50
37646;DHT22;23489;49.600;6.138;2024-03-08T09:32:57;15.60;83.60
37646;DHT22;23489;49.600;6.138;2024-03-08T09:35:22;14.90;84.90
37646;DHT22;23489;49.600;6.138;2024-03-08T09:37:48;15.60;83.80
37646;DHT22;23489;49.600;6.138;2024-03-08T09:40:16;14.90;85.40
37646;DHT22;23489;49.600;6.138;2024-03-08T09:42:48;15.80;85.00
37646;DHT22;23489;49.600;6.138;2024-03-08T09:45:13;16.20;83.20
37646;DHT22;23489;49.600;6.138;2024-03-08T09:47:42;16.50;82.60
37646;DHT22;23489;49.600;6.138;2024-03-08T09:50:08;17.10;81.50
37646;DHT22;23489;49.600;6.138;2024-03-08T09:52:35;17.30;79.40
37646;DHT22;23489;49.600;6.138;2024-03-08T09:55:04;17.50;79.60
37646;DHT22;23489;49.600;6.138;2024-03-08T09:57:30;18.30;78.30
37646;DHT22;23489;49.600;6.138;2024-03-08T09:59:56;18.20;77.50
37646;DHT22;23489;49.600;6.138;2024-03-08T10:02:22;17.30;77.20
37646;DHT22;23489;49.600;6.138;2024-03-08T10:04:47;16.70;78.00
37646;DHT22;23489;49.600;6.138;2024-03-08T10:07:13;16.40;78.70
37646;DHT22;23489;49.600;6.138;2024-03-08T10:09:39;16.20;78.80
37646;DHT22;23489;49.600;6.138;2024-03-08T10:12:05;16.20;79.70
37646;DHT22;23489;49.600;6.138;2024-03-08T10:14:31;15.50;81.10
37646;DHT22;23489;49.600;6.138;2024-03-08T10:16:59;15.60;80.80
37646;DHT22;23489;49.600;6.138;2024-03-08T10:19:26;15.80;80.60
37646;DHT22;23489;49.600;6.138;2024-03-08T10:21:53;15.90;80.50
37646;DHT22;23489;49.600;6.138;2024-03-08T10:24:22;16.20;80.30
37646;DHT22;23489;49.600;6.138;2024-03-08T10:26:51;16.70;78.50
37646;DHT22;23489;49.600;6.138;2024-03-08T10:29:18;17.30;78.90
37646;DHT22;23489;49.600;6.138;2024-03-08T10:31:44;17.80;76.80
37646;DHT22;23489;49.600;6.138;2024-03-08T10:34:12;17.50;76.20
37646;DHT22;23489;49.600;6.138;2024-03-08T10:36:38;17.50;76.30
37646;DHT22;23489;49.600;6.138;2024-03-08T10:39:06;17.80;76.10
37646;DHT22;23489;49.600;6.138;2024-03-08T10:41:34;18.00;75.80
37646;DHT22;23489;49.600;6.138;2024-03-08T10:44:14;17.70;75.60
37646;DHT22;23489;49.600;6.138;2024-03-08T10:47:01;16.30;76.80
37646;DHT22;23489;49.600;6.138;2024-03-08T10:49:33;15.10;78.70
37646;DHT22;23489;49.600;6.138;2024-03-08T10:52:05;14.40;80.30
37646;DHT22;23489;49.600;6.138;2024-03-08T10:54:34;13.60;82.90
37646;DHT22;23489;49.600;6.138;2024-03-08T10:57:05;13.40;83.60
37646;DHT22;23489;49.600;6.138;2024-03-08T10:59:34;13.20;85.00
37646;DHT22;23489;49.600;6.138;2024-03-08T11:02:00;12.50;86.10
37646;DHT22;23489;49.600;6.138;2024-03-08T11:04:26;11.90;87.90
37646;DHT22;23489;49.600;6.138;2024-03-08T11:07:03;11.50;90.00
37646;DHT22;23489;49.600;6.138;2024-03-08T11:09:36;10.90;90.80
37646;DHT22;23489;49.600;6.138;2024-03-08T11:12:26;9.90;92.50
37646;DHT22;23489;49.600;6.138;2024-03-08T11:15:01;9.40;94.20
37646;DHT22;23489;49.600;6.138;2024-03-08T11:19:59;9.00;96.20
37646;DHT22;23489;49.600;6.138;2024-03-08T11:22:33;9.00;96.60
37646;DHT22;23489;49.600;6.138;2024-03-08T11:25:03;8.80;97.20
37646;DHT22;23489;49.600;6.138;2024-03-08T11:27:34;8.80;97.80
37646;DHT22;23489;49.600;6.138;2024-03-08T11:30:02;8.80;97.70
37646;DHT22;23489;49.600;6.138;2024-03-08T11:32:38;8.90;98.30
37646;DHT22;23489;49.600;6.138;2024-03-08T11:35:07;8.90;98.50
37646;DHT22;23489;49.600;6.138;2024-03-08T11:37:43;9.00;98.70
37646;DHT22;23489;49.600;6.138;2024-03-08T11:40:13;8.90;99.30
37646;DHT22;23489;49.600;6.138;2024-03-08T11:42:48;8.90;99.10
37646;DHT22;23489;49.600;6.138;2024-03-08T11:45:18;8.90;99.30
37646;DHT22;23489;49.600;6.138;2024-03-08T11:47:46;9.00;99.50
37646;DHT22;23489;49.600;6.138;2024-03-08T11:50:13;9.10;99.40
37646;DHT22;23489;49.600;6.138;2024-03-08T11:52:39;9.10;99.10
37646;DHT22;23489;49.600;6.138;2024-03-08T11:55:06;9.00;99.00
37646;DHT22;23489;49.600;6.138;2024-03-08T11:57:32;9.10;99.50
37646;DHT22;23489;49.600;6.138;2024-03-08T11:59:59;9.10;99.30
37646;DHT22;23489;49.600;6.138;2024-03-08T12:02:34;9.20;99.70
37646;DHT22;23489;49.600;6.138;2024-03-08T12:05:07;9.20;99.80
37646;DHT22;23489;49.600;6.138;2024-03-08T12:07:35;9.40;99.90
37646;DHT22;23489;49.600;6.138;2024-03-08T12:10:19;9.50;99.10
37646;DHT22;23489;49.600;6.138;2024-03-08T12:12:46;9.50;98.80
37646;DHT22;23489;49.600;6.138;2024-03-08T12:15:13;9.60;98.70
37646;DHT22;23489;49.600;6.138;2024-03-08T12:17:39;9.40;98.80
37646;DHT22;23489;49.600;6.138;2024-03-08T12:20:12;9.40;99.30
37646;DHT22;23489;49.600;6.138;2024-03-08T12:22:42;9.40;99.70
37646;DHT22;23489;49.600;6.138;2024-03-08T12:25:09;9.50;99.80
37646;DHT22;23489;49.600;6.138;2024-03-08T12:27:37;9.50;99.60
37646;DHT22;23489;49.600;6.138;2024-03-08T12:32:59;9.80;99.90
37646;DHT22;23489;49.600;6.138;2024-03-08T12:35:29;9.90;99.50
37646;DHT22;23489;49.600;6.138;2024-03-08T12:37:57;10.00;99.20
37646;DHT22;23489;49.600;6.138;2024-03-08T12:40:30;10.10;98.80
37646;DHT22;23489;49.600;6.138;2024-03-08T12:42:57;10.10;97.90
37646;DHT22;23489;49.600;6.138;2024-03-08T12:45:24;10.10;98.30
37646;DHT22;23489;49.600;6.138;2024-03-08T12:47:56;10.00;98.30
37646;DHT22;23489;49.600;6.138;2024-03-08T12:50:22;10.10;98.50
37646;DHT22;23489;49.600;6.138;2024-03-08T12:52:50;10.20;98.20
37646;DHT22;23489;49.600;6.138;2024-03-08T12:55:18;10.30;98.20
37646;DHT22;23489;49.600;6.138;2024-03-08T12:57:44;10.30;98.40
37646;DHT22;23489;49.600;6.138;2024-03-08T13:00:11;10.40;98.50
37646;DHT22;23489;49.600;6.138;2024-03-08T13:02:47;10.50;98.20
37646;DHT22;23489;49.600;6.138;2024-03-08T13:05:13;10.40;98.30
37646;DHT22;23489;49.600;6.138;2024-03-08T13:07:43;10.40;98.30
37646;DHT22;23489;49.600;6.138;2024-03-08T13:10:15;10.50;98.40
37646;DHT22;23489;49.600;6.138;2024-03-08T13:12:44;10.50;98.40
37646;DHT22;23489;49.600;6.138;2024-03-08T13:15:10;10.40;98.50
37646;DHT22;23489;49.600;6.138;2024-03-08T13:17:40;10.40;98.90
37646;DHT22;23489;49.600;6.138;2024-03-08T13:20:09;10.40;98.80
37646;DHT22;23489;49.600;6.138;2024-03-08T13:22:42;10.30;98.80
37646;DHT22;23489;49.600;6.138;2024-03-08T13:25:08;10.40;98.80
37646;DHT22;23489;49.600;6.138;2024-03-08T13:27:42;10.60;99.10
37646;DHT22;23489;49.600;6.138;2024-03-08T13:30:11;10.70;98.60
37646;DHT22;23489;49.600;6.138;2024-03-08T13:32:40;10.70;98.30
37646;DHT22;23489;49.600;6.138;2024-03-08T13:35:09;10.70;98.60
37646;DHT22;23489;49.600;6.138;2024-03-08T13:37:38;10.80;98.50
37646;DHT22;23489;49.600;6.138;2024-03-08T13:40:05;10.90;98.60
37646;DHT22;23489;49.600;6.138;2024-03-08T13:42:31;10.90;98.60
37646;DHT22;23489;49.600;6.138;2024-03-08T13:44:56;10.90;98.50
37646;DHT22;23489;49.600;6.138;2024-03-08T13:47:22;10.80;98.80
37646;DHT22;23489;49.600;6.138;2024-03-08T13:49:50;10.90;98.60
37646;DHT22;23489;49.600;6.138;2024-03-08T13:52:16;10.90;98.80
37646;DHT22;23489;49.600;6.138;2024-03-08T13:54:42;10.90;98.80
37646;DHT22;23489;49.600;6.138;2024-03-08T13:57:07;10.90;98.40
37646;DHT22;23489;49.600;6.138;2024-03-08T13:59:34;10.90;98.70
37646;DHT22;23489;49.600;6.138;2024-03-08T14:02:04;10.90;98.70
37646;DHT22;23489;49.600;6.138;2024-03-08T14:04:30;10.90;98.60
37646;DHT22;23489;49.600;6.138;2024-03-08T14:06:56;10.80;98.60
37646;DHT22;23489;49.600;6.138;2024-03-08T14:09:30;10.80;98.60
37646;DHT22;23489;49.600;6.138;2024-03-08T14:11:56;10.80;98.50
37646;DHT22;23489;49.600;6.138;2024-03-08T14:14:24;10.80;98.60
37646;DHT22;23489;49.600;6.138;2024-03-08T14:16:50;10.80;98.80
37646;DHT22;23489;49.600;6.138;2024-03-08T14:19:20;10.80;98.50
37646;DHT22;23489;49.600;6.138;2024-03-08T14:21:46;10.60;98.70
37646;DHT22;23489;49.600;6.138;2024-03-08T14:24:15;10.60;98.90
37646;DHT22;23489;49.600;6.138;2024-03-08T14:26:42;10.70;98.90
37646;DHT22;23489;49.600;6.138;2024-03-08T14:29:08;10.70;99.00
37646;DHT22;23489;49.600;6.138;2024-03-08T14:31:36;10.60;98.70
37646;DHT22;23489;49.600;6.138;2024-03-08T14:34:02;10.60;98.90
37646;DHT22;23489;49.600;6.138;2024-03-08T14:36:29;10.60;98.80
37646;DHT22;23489;49.600;6.138;2024-03-08T14:38:55;10.60;98.90
37646;DHT22;23489;49.600;6.138;2024-03-08T14:41:21;10.70;98.90
37646;DHT22;23489;49.600;6.138;2024-03-08T14:43:48;10.70;98.80
37646;DHT22;23489;49.600;6.138;2024-03-08T14:46:14;10.60;98.70
37646;DHT22;23489;49.600;6.138;2024-03-08T14:48:46;10.50;98.80
37646;DHT22;23489;49.600;6.138;2024-03-08T14:51:13;10.50;98.90
37646;DHT22;23489;49.600;6.138;2024-03-08T14:53:43;10.50;99.00
37646;DHT22;23489;49.600;6.138;2024-03-08T14:56:11;10.60;99.00
37646;DHT22;23489;49.600;6.138;2024-03-08T14:58:45;10.60;99.10
37646;DHT22;23489;49.600;6.138;2024-03-08T15:01:12;10.60;99.10
37646;DHT22;23489;49.600;6.138;2024-03-08T15:03:42;10.50;99.10
37646;DHT22;23489;49.600;6.138;2024-03-08T15:06:10;10.50;99.20
37646;DHT22;23489;49.600;6.138;2024-03-08T15:08:37;10.60;99.40
37646;DHT22;23489;49.600;6.138;2024-03-08T15:11:06;10.60;99.50
37646;DHT22;23489;49.600;6.138;2024-03-08T15:13:33;10.50;99.30
37646;DHT22;23489;49.600;6.138;2024-03-08T15:16:06;10.60;99.70
37646;DHT22;23489;49.600;6.138;2024-03-08T15:18:32;10.60;99.40
37646;DHT22;23489;49.600;6.138;2024-03-08T15:21:06;10.60;99.40
37646;DHT22;23489;49.600;6.138;2024-03-08T15:23:35;10.50;99.20
37646;DHT22;23489;49.600;6.138;2024-03-08T15:26:04;10.50;99.30
37646;DHT22;23489;49.600;6.138;2024-03-08T15:28:33;10.40;99.30
37646;DHT22;23489;49.600;6.138;2024-03-08T15:31:06;10.40;99.40
37646;DHT22;23489;49.600;6.138;2024-03-08T15:33:33;10.40;99.50
37646;DHT22;23489;49.600;6.138;2024-03-08T15:35:59;10.40;99.60
37646;DHT22;23489;49.600;6.138;2024-03-08T15:38:29;10.30;99.40
37646;DHT22;23489;49.600;6.138;2024-03-08T15:40:55;10.20;99.60
37646;DHT22;23489;49.600;6.138;2024-03-08T15:43:22;10.20;99.60
37646;DHT22;23489;49.600;6.138;2024-03-08T15:45:48;10.10;99.30
37646;DHT22;23489;49.600;6.138;2024-03-08T15:48:14;10.10;99.50